createdAt,value
2023-03-26T00:01:37.042Z,99230.00
2023-03-26T00:04:07.005Z,99227.78
2023-03-26T00:06:39.824Z,99230.28
2023-03-26T00:09:10.351Z,99225.72
2023-03-26T00:11:37.866Z,99233.53
2023-03-26T00:14:05.891Z,99228.16
2023-03-26T00:16:33.930Z,99226.50
2023-03-26T00:19:02.369Z,99220.03
2023-03-26T00:21:31.132Z,99219.41
2023-03-26T00:24:04.619Z,99224.81
2023-03-26T00:26:34.566Z,99221.28
2023-03-26T00:29:03.881Z,99218.94
2023-03-26T00:31:31.728Z,99223.53
2023-03-26T00:33:59.742Z,99216.47
2023-03-26T00:36:27.113Z,99213.97
2023-03-26T00:38:55.100Z,99221.88
2023-03-26T00:41:31.262Z,99213.31
2023-03-26T00:44:00.573Z,99205.22
2023-03-26T00:46:31.327Z,99211.06
2023-03-26T00:49:00.140Z,99213.31
2023-03-26T00:51:28.794Z,99210.97
2023-03-26T00:53:57.109Z,99213.22
2023-03-26T00:56:24.752Z,99208.47
2023-03-26T00:58:51.725Z,99215.56
2023-03-26T01:01:28.702Z,99212.22
2023-03-26T01:04:07.346Z,99211.34
2023-03-26T01:06:41.945Z,99210.06
2023-03-26T01:09:19.034Z,99213.16
2023-03-26T01:11:46.681Z,99210.06
2023-03-26T01:14:17.865Z,99203.84
2023-03-26T01:16:57.920Z,99198.38
2023-03-26T01:19:38.473Z,99196.34
2023-03-26T01:22:12.370Z,99193.19
2023-03-26T01:24:40.422Z,99185.28
2023-03-26T01:27:18.046Z,99180.25
2023-03-26T01:29:58.653Z,99176.72
2023-03-26T01:32:50.391Z,99178.78
2023-03-26T01:35:23.768Z,99167.91
2023-03-26T01:38:23.324Z,99159.75
2023-03-26T01:41:01.326Z,99157.88
2023-03-26T01:43:52.976Z,99155.38
2023-03-26T01:46:22.909Z,99156.78
2023-03-26T01:48:50.157Z,99154.03
2023-03-26T01:51:30.036Z,99161.25
2023-03-26T01:53:58.540Z,99158.97
2023-03-26T01:56:42.830Z,99154.56
2023-03-26T01:59:37.124Z,99155.34
2023-03-26T02:02:14.623Z,99155.34
2023-03-26T02:04:58.247Z,99151.81
2023-03-26T02:08:02.389Z,99148.09
2023-03-26T02:10:47.952Z,99150.41
2023-03-26T02:13:15.473Z,99152.72
2023-03-26T02:16:00.238Z,99143.16
2023-03-26T02:18:36.482Z,99147.78
2023-03-26T02:21:12.499Z,99154.84
2023-03-26T02:23:47.122Z,99146.31
2023-03-26T02:26:18.568Z,99142.78
2023-03-26T02:28:45.949Z,99137.19
2023-03-26T02:31:14.079Z,99142.38
2023-03-26T02:33:41.153Z,99140.28
2023-03-26T02:36:08.797Z,99132.19
2023-03-26T02:38:35.853Z,99130.59
2023-03-26T02:41:03.744Z,99119.81
2023-03-26T02:43:31.162Z,99126.63
2023-03-26T02:45:58.433Z,99124.09
2023-03-26T02:48:25.645Z,99120.38
2023-03-26T02:50:54.764Z,99124.94
2023-03-26T02:53:24.337Z,99118.72
2023-03-26T02:55:51.331Z,99125.75
2023-03-26T02:58:18.777Z,99122.03
2023-03-26T03:00:47.027Z,99122.22
2023-03-26T03:03:17.431Z,99114.78
2023-03-26T03:05:44.574Z,99122.41
2023-03-26T03:08:11.702Z,99115.81
2023-03-26T03:10:39.730Z,99105.03
2023-03-26T03:13:08.027Z,99123.28
2023-03-26T03:15:35.920Z,99112.22
2023-03-26T03:18:03.291Z,99106.63
2023-03-26T03:20:30.676Z,99110.47
2023-03-26T03:22:57.763Z,99113.16
2023-03-26T03:25:26.250Z,99116.41
2023-03-26T03:27:54.184Z,99122.66
2023-03-26T03:30:21.256Z,99116.16
2023-03-26T03:32:48.304Z,99120.88
2023-03-26T03:35:15.662Z,99123.13
2023-03-26T03:37:42.719Z,99117.47
2023-03-26T03:40:13.524Z,99118.59
2023-03-26T03:42:40.465Z,99120.19
2023-03-26T03:45:08.124Z,99119.53
2023-03-26T03:47:35.125Z,99123.97
2023-03-26T03:50:02.044Z,99117.13
2023-03-26T03:52:29.024Z,99133.81
2023-03-26T03:54:58.027Z,99123.63
2023-03-26T03:57:24.901Z,99136.44
2023-03-26T03:59:51.834Z,99133.44
2023-03-26T04:02:26.802Z,99129.28
2023-03-26T04:04:54.578Z,99125.81
2023-03-26T04:07:21.559Z,99124.34
2023-03-26T04:09:48.479Z,99128.22
2023-03-26T04:12:15.696Z,99131.13
2023-03-26T04:14:43.350Z,99120.88
2023-03-26T04:17:10.645Z,99119.03
2023-03-26T04:19:37.855Z,99130.34
2023-03-26T04:22:04.749Z,99131.75
2023-03-26T04:24:38.626Z,99130.72
2023-03-26T04:27:07.190Z,99121.47
2023-03-26T04:29:43.122Z,99124.69
2023-03-26T04:32:26.914Z,99139.66
2023-03-26T04:34:53.961Z,99133.31
2023-03-26T04:37:39.767Z,99134.78
2023-03-26T04:40:16.101Z,99136.34
2023-03-26T04:42:46.418Z,99137.00
2023-03-26T04:45:17.840Z,99130.81
2023-03-26T04:47:46.767Z,99148.41
2023-03-26T04:50:13.871Z,99146.28
2023-03-26T04:52:42.629Z,99147.78
2023-03-26T04:55:25.515Z,99152.31
2023-03-26T04:58:00.337Z,99155.19
2023-03-26T05:00:28.009Z,99150.63
2023-03-26T05:02:58.088Z,99156.41
2023-03-26T05:05:27.360Z,99156.69
2023-03-26T05:07:54.596Z,99163.56
2023-03-26T05:10:22.095Z,99161.41
2023-03-26T05:12:49.453Z,99171.00
2023-03-26T05:15:16.741Z,99171.00
2023-03-26T05:17:43.831Z,99173.03
2023-03-26T05:20:26.652Z,99171.00
2023-03-26T05:22:54.369Z,99181.75
2023-03-26T05:25:21.300Z,99180.44
2023-03-26T05:27:48.830Z,99178.59
2023-03-26T05:30:19.719Z,99187.88
2023-03-26T05:32:49.406Z,99185.34
2023-03-26T05:35:17.834Z,99190.25
2023-03-26T05:37:46.571Z,99190.50
2023-03-26T05:40:15.223Z,99197.19
2023-03-26T05:42:42.644Z,99195.97
2023-03-26T05:45:12.490Z,99200.34
2023-03-26T05:47:39.752Z,99209.59
2023-03-26T05:50:08.861Z,99209.13
2023-03-26T05:52:36.236Z,99208.84
2023-03-26T05:55:04.074Z,99214.88
2023-03-26T05:57:32.647Z,99223.28
2023-03-26T05:59:59.637Z,99221.63
2023-03-26T06:02:26.545Z,99220.78
2023-03-26T06:04:53.578Z,99226.16
2023-03-26T06:07:21.268Z,99226.00
2023-03-26T06:09:48.232Z,99238.44
2023-03-26T06:12:16.360Z,99243.31
2023-03-26T06:14:43.673Z,99244.81
2023-03-26T06:17:11.141Z,99244.81
2023-03-26T06:19:38.229Z,99252.88
2023-03-26T06:22:05.894Z,99255.88
2023-03-26T06:24:33.451Z,99260.59
2023-03-26T06:27:00.901Z,99274.88
2023-03-26T06:29:27.989Z,99272.38
2023-03-26T06:31:55.393Z,99279.66
2023-03-26T06:34:22.400Z,99279.78
2023-03-26T06:36:52.768Z,99289.88
2023-03-26T06:39:20.976Z,99297.78
2023-03-26T06:41:48.008Z,99297.28
2023-03-26T06:44:14.999Z,99308.72
2023-03-26T06:46:42.364Z,99314.63
2023-03-26T06:49:09.468Z,99306.69
2023-03-26T06:51:36.503Z,99328.72
2023-03-26T06:54:03.816Z,99326.56
2023-03-26T06:56:30.792Z,99324.53
2023-03-26T06:58:57.792Z,99328.38
2023-03-26T07:01:24.708Z,99335.31
2023-03-26T07:03:51.721Z,99336.78
2023-03-26T07:06:18.708Z,99346.91
2023-03-26T07:08:45.614Z,99350.63
2023-03-26T07:11:12.865Z,99347.25
2023-03-26T07:13:40.460Z,99355.16
2023-03-26T07:16:07.916Z,99361.72
2023-03-26T07:18:34.932Z,99375.16
2023-03-26T07:21:02.369Z,99379.88
2023-03-26T07:23:29.736Z,99384.25
2023-03-26T07:25:57.161Z,99384.91
2023-03-26T07:28:42.717Z,99387.94
2023-03-26T07:31:49.853Z,99398.53
2023-03-26T07:34:22.735Z,99390.47
2023-03-26T07:37:02.682Z,99404.22
2023-03-26T07:40:00.875Z,99406.25
2023-03-26T07:42:39.947Z,99409.78
2023-03-26T07:45:28.433Z,99411.63
2023-03-26T07:47:57.274Z,99430.47
2023-03-26T07:50:25.681Z,99433.66
2023-03-26T07:52:53.467Z,99432.00
2023-03-26T07:55:21.164Z,99440.34
2023-03-26T07:58:18.214Z,99452.31
2023-03-26T08:00:53.886Z,99458.50
2023-03-26T08:03:29.939Z,99462.88
2023-03-26T08:06:15.272Z,99469.06
2023-03-26T08:09:20.919Z,99473.47
2023-03-26T08:12:15.549Z,99481.41
2023-03-26T08:14:56.546Z,99492.00
2023-03-26T08:17:41.101Z,99490.78
2023-03-26T08:20:41.976Z,99493.31
2023-03-26T08:23:19.736Z,99502.06
2023-03-26T08:26:17.719Z,99513.13
2023-03-26T08:29:21.114Z,99519.84
2023-03-26T08:31:50.106Z,99512.13
2023-03-26T08:34:17.190Z,99519.34
2023-03-26T08:36:44.240Z,99531.75
2023-03-26T08:39:11.168Z,99539.00
2023-03-26T08:42:18.830Z,99531.22
2023-03-26T08:45:18.854Z,99556.97
2023-03-26T08:48:10.914Z,99563.88
2023-03-26T08:50:59.191Z,99569.22
2023-03-26T08:54:19.523Z,99573.13
2023-03-26T08:57:21.380Z,99585.56
2023-03-26T09:00:39.923Z,99594.97
2023-03-26T09:03:37.612Z,99610.47
2023-03-26T09:06:27.970Z,99602.56
2023-03-26T09:09:32.755Z,99604.56
2023-03-26T09:12:02.442Z,99619.69
2023-03-26T09:14:38.077Z,99621.03
2023-03-26T09:17:32.684Z,99636.03
2023-03-26T09:20:36.729Z,99644.09
2023-03-26T09:23:25.214Z,99647.63
2023-03-26T09:26:38.508Z,99647.47
2023-03-26T09:29:08.273Z,99652.53
2023-03-26T09:32:11.939Z,99659.75
2023-03-26T09:35:27.540Z,99672.53
2023-03-26T09:38:20.674Z,99684.81
2023-03-26T09:41:02.670Z,99678.91
2023-03-26T09:44:06.149Z,99686.66
2023-03-26T09:47:09.508Z,99698.91
2023-03-26T09:49:48.872Z,99701.44
2023-03-26T09:53:09.515Z,99711.53
2023-03-26T09:56:04.848Z,99718.28
2023-03-26T09:58:49.025Z,99722.81
2023-03-26T10:01:32.391Z,99728.03
2023-03-26T10:04:29.772Z,99735.41
2023-03-26T10:07:33.505Z,99732.75
2023-03-26T10:10:26.497Z,99737.63
2023-03-26T10:13:13.924Z,99738.09
2023-03-26T10:16:06.365Z,99751.25
2023-03-26T10:19:18.220Z,99764.19
2023-03-26T10:22:20.319Z,99764.31
2023-03-26T10:25:17.685Z,99781.47
2023-03-26T10:28:09.358Z,99789.88
2023-03-26T10:31:19.790Z,99790.88
2023-03-26T10:34:28.413Z,99804.00
2023-03-26T10:37:28.180Z,99804.00
2023-03-26T10:40:16.431Z,99823.22
2023-03-26T10:43:20.548Z,99824.03
2023-03-26T10:46:08.612Z,99829.22
2023-03-26T10:49:03.900Z,99832.59
2023-03-26T10:51:59.385Z,99843.38
2023-03-26T10:55:15.017Z,99844.56
2023-03-26T10:57:51.476Z,99860.56
2023-03-26T11:00:25.809Z,99861.38
2023-03-26T11:03:21.100Z,99867.94
2023-03-26T11:06:06.381Z,99871.63
2023-03-26T11:08:57.851Z,99884.75
2023-03-26T11:11:49.372Z,99886.78
2023-03-26T11:14:37.072Z,99889.41
2023-03-26T11:17:40.506Z,99897.81
2023-03-26T11:20:44.572Z,99908.56
2023-03-26T11:24:05.290Z,99918.31
2023-03-26T11:27:14.594Z,99921.69
2023-03-26T11:30:05.442Z,99939.81
2023-03-26T11:32:44.586Z,99940.13
2023-03-26T11:35:40.266Z,99950.44
2023-03-26T11:38:20.555Z,99952.63
2023-03-26T11:40:53.622Z,99949.41
2023-03-26T11:43:26.888Z,99963.56
2023-03-26T11:45:54.475Z,99978.44
2023-03-26T11:48:29.467Z,99970.34
2023-03-26T11:51:05.456Z,99976.41
2023-03-26T11:53:34.886Z,99997.00
2023-03-26T11:56:24.909Z,99995.47
2023-03-26T11:58:57.446Z,100000.19
2023-03-26T12:01:31.485Z,100006.75
2023-03-26T12:04:15.685Z,100007.06
2023-03-26T12:06:57.838Z,100011.78
2023-03-26T12:09:25.140Z,100028.19
2023-03-26T12:12:00.357Z,100027.53
2023-03-26T12:14:31.146Z,100034.75
2023-03-26T12:17:00.474Z,100040.16
2023-03-26T12:19:29.252Z,100043.34
2023-03-26T12:21:56.350Z,100044.50
2023-03-26T12:24:32.067Z,100039.88
2023-03-26T12:27:21.885Z,100041.66
2023-03-26T12:30:00.703Z,100055.25
2023-03-26T12:35:19.059Z,100063.78
2023-03-26T12:37:47.795Z,100062.41
2023-03-26T12:40:37.029Z,100075.03
2023-03-26T12:44:54.711Z,100081.34
2023-03-26T12:47:54.619Z,100101.94
2023-03-26T12:49:22.783Z,100094.94
2023-03-26T12:52:00.329Z,100097.66
2023-03-26T12:55:25.823Z,100114.97
2023-03-26T12:58:21.283Z,100115.69
2023-03-26T13:00:57.362Z,100128.91
2023-03-26T13:03:57.611Z,100128.63
2023-03-26T13:06:59.049Z,100135.69
2023-03-26T13:09:36.874Z,100132.69
2023-03-26T13:12:26.687Z,100144.53
2023-03-26T13:15:24.763Z,100146.56
2023-03-26T13:18:18.386Z,100144.69
2023-03-26T13:21:06.648Z,100149.94
2023-03-26T13:24:00.874Z,100154.72
2023-03-26T13:26:46.202Z,100161.59
2023-03-26T13:29:26.445Z,100164.97
2023-03-26T13:32:49.183Z,100164.69
2023-03-26T13:35:30.343Z,100166.16
2023-03-26T13:38:07.797Z,100173.63
2023-03-26T13:41:21.199Z,100177.69
2023-03-26T13:44:53.130Z,100189.91
2023-03-26T13:47:38.766Z,100189.78
2023-03-26T13:50:24.308Z,100189.94
2023-03-26T13:52:59.601Z,100195.50
2023-03-26T13:55:37.629Z,100199.25
2023-03-26T13:58:12.957Z,100211.56
2023-03-26T14:00:55.200Z,100200.44
2023-03-26T14:03:33.609Z,100203.28
2023-03-26T14:06:08.906Z,100208.41
2023-03-26T14:08:46.345Z,100208.72
2023-03-26T14:11:42.496Z,100211.28
2023-03-26T14:14:34.199Z,100209.06
2023-03-26T14:17:17.132Z,100216.66
2023-03-26T14:20:30.234Z,100215.31
2023-03-26T14:23:38.457Z,100208.53
2023-03-26T14:26:40.680Z,100218.09
2023-03-26T14:29:33.072Z,100225.66
2023-03-26T14:32:30.970Z,100234.94
2023-03-26T14:35:29.805Z,100235.13
2023-03-26T14:38:35.156Z,100244.94
2023-03-26T14:41:47.954Z,100255.09
2023-03-26T14:44:56.552Z,100265.56
2023-03-26T14:47:25.588Z,100271.84
2023-03-26T14:50:09.016Z,100285.53
2023-03-26T14:53:01.424Z,100292.66
2023-03-26T14:55:43.817Z,100296.69
2023-03-26T14:59:03.102Z,100300.75
2023-03-26T15:02:21.728Z,100300.78
2023-03-26T15:04:54.891Z,100311.59
2023-03-26T15:07:41.557Z,100312.09
2023-03-26T15:10:58.889Z,100311.09
2023-03-26T15:13:37.854Z,100323.09
2023-03-26T15:16:38.364Z,100321.41
2023-03-26T15:20:02.302Z,100331.19
2023-03-26T15:23:16.071Z,100331.19
2023-03-26T15:26:04.074Z,100344.34
2023-03-26T15:28:32.083Z,100344.34
2023-03-26T15:31:21.249Z,100357.22
2023-03-26T15:34:10.034Z,100354.19
2023-03-26T15:37:37.399Z,100359.91
2023-03-26T15:40:26.234Z,100369.03
2023-03-26T15:43:01.776Z,100372.94
2023-03-26T15:45:32.829Z,100374.13
2023-03-26T15:48:12.544Z,100384.94
2023-03-26T15:51:19.514Z,100382.75
2023-03-26T15:54:04.583Z,100386.81
2023-03-26T15:56:56.817Z,100406.72
2023-03-26T15:59:51.279Z,100407.56
2023-03-26T16:02:50.556Z,100410.28
2023-03-26T16:05:29.368Z,100409.28
2023-03-26T16:08:26.810Z,100415.00
2023-03-26T16:11:07.926Z,100414.31
2023-03-26T16:13:42.047Z,100420.59
2023-03-26T16:16:14.979Z,100426.81
2023-03-26T16:19:20.898Z,100436.47
2023-03-26T16:22:08.592Z,100445.41
2023-03-26T16:24:46.713Z,100444.72
2023-03-26T16:27:13.561Z,100464.66
2023-03-26T16:30:09.820Z,100470.19
2023-03-26T16:32:44.930Z,100472.06
2023-03-26T16:35:14.745Z,100480.13
2023-03-26T16:37:54.079Z,100481.16
2023-03-26T16:40:32.805Z,100482.50
2023-03-26T16:43:36.361Z,100494.81
2023-03-26T16:46:34.641Z,100497.69
2023-03-26T16:49:15.555Z,100498.66
2023-03-26T16:52:07.946Z,100500.28
2023-03-26T16:54:47.991Z,100511.06
2023-03-26T16:58:17.253Z,100516.13
2023-03-26T17:01:28.515Z,100523.03
2023-03-26T17:04:08.680Z,100529.56
2023-03-26T17:07:14.243Z,100534.25
2023-03-26T17:09:56.571Z,100543.03
2023-03-26T17:13:16.916Z,100553.94
2023-03-26T17:16:25.225Z,100542.91
2023-03-26T17:19:36.198Z,100565.06
2023-03-26T17:22:15.808Z,100573.94
2023-03-26T17:24:59.719Z,100584.44
2023-03-26T17:27:43.835Z,100582.28
2023-03-26T17:30:42.329Z,100588.63
2023-03-26T17:33:35.197Z,100609.44
2023-03-26T17:36:11.470Z,100613.38
2023-03-26T17:38:45.489Z,100618.69
2023-03-26T17:41:17.680Z,100628.72
2023-03-26T17:43:52.194Z,100639.50
2023-03-26T17:46:40.235Z,100632.19
2023-03-26T17:49:13.788Z,100633.63
2023-03-26T17:51:50.693Z,100641.72
2023-03-26T17:54:47.322Z,100647.69
2023-03-26T17:57:32.924Z,100654.63
2023-03-26T18:00:01.548Z,100657.34
2023-03-26T18:02:49.969Z,100668.25
2023-03-26T18:05:17.721Z,100665.16
2023-03-26T18:08:12.256Z,100671.09
2023-03-26T18:11:14.397Z,100674.53
2023-03-26T18:13:54.723Z,100675.94
2023-03-26T18:16:26.819Z,100673.38
2023-03-26T18:19:17.912Z,100688.16
2023-03-26T18:21:50.510Z,100689.19
2023-03-26T18:24:32.146Z,100692.72
2023-03-26T18:27:03.376Z,100698.00
2023-03-26T18:29:33.826Z,100707.22
2023-03-26T18:32:07.767Z,100705.66
2023-03-26T18:34:38.299Z,100700.88
2023-03-26T18:37:11.077Z,100709.69
2023-03-26T18:39:38.831Z,100719.75
2023-03-26T18:42:07.085Z,100735.38
2023-03-26T18:44:39.338Z,100745.72
2023-03-26T18:47:09.830Z,100741.31
2023-03-26T18:49:37.373Z,100758.06
2023-03-26T18:52:04.687Z,100759.47
2023-03-26T18:54:35.736Z,100766.84
2023-03-26T18:57:16.606Z,100768.56
2023-03-26T18:59:45.677Z,100774.50
2023-03-26T19:02:14.042Z,100777.91
2023-03-26T19:04:46.193Z,100782.44
2023-03-26T19:07:22.512Z,100785.28
2023-03-26T19:09:51.097Z,100786.28
2023-03-26T19:12:24.583Z,100799.03
2023-03-26T19:14:56.607Z,100801.75
2023-03-26T19:17:28.689Z,100807.13
2023-03-26T19:19:57.491Z,100811.94
2023-03-26T19:22:25.937Z,100811.38
2023-03-26T19:25:01.252Z,100821.31
2023-03-26T19:27:29.425Z,100822.16
2023-03-26T19:29:56.544Z,100826.97
2023-03-26T19:32:33.242Z,100820.72
2023-03-26T19:35:02.444Z,100826.13
2023-03-26T19:37:31.724Z,100838.56
2023-03-26T19:40:19.603Z,100841.13
2023-03-26T19:42:48.154Z,100842.69
2023-03-26T19:45:20.601Z,100851.91
2023-03-26T19:47:57.343Z,100858.13
2023-03-26T19:50:30.838Z,100869.91
2023-03-26T19:53:32.736Z,100875.84
2023-03-26T19:56:22.066Z,100878.97
2023-03-26T19:58:53.108Z,100873.56
2023-03-26T20:01:29.630Z,100883.38
2023-03-26T20:04:01.765Z,100892.56
2023-03-26T20:06:41.629Z,100886.19
2023-03-26T20:09:12.585Z,100894.13
2023-03-26T20:11:41.039Z,100897.69
2023-03-26T20:14:18.396Z,100905.47
2023-03-26T20:16:46.176Z,100906.31
2023-03-26T20:19:15.515Z,100900.63
2023-03-26T20:21:44.582Z,100903.75
2023-03-26T20:24:17.931Z,100921.63
2023-03-26T20:26:46.934Z,100920.47
2023-03-26T20:29:15.230Z,100928.00
2023-03-26T20:31:43.327Z,100932.41
2023-03-26T20:34:20.239Z,100922.75
2023-03-26T20:36:47.697Z,100931.94
2023-03-26T20:39:14.902Z,100939.91
2023-03-26T20:41:48.692Z,100942.00
2023-03-26T20:44:19.065Z,100943.69
2023-03-26T20:46:48.777Z,100949.25
2023-03-26T20:49:16.664Z,100947.25
2023-03-26T20:51:45.687Z,100949.38
2023-03-26T20:54:20.401Z,100953.03
2023-03-26T20:56:49.617Z,100957.72
2023-03-26T20:59:27.010Z,100953.84
2023-03-26T21:01:57.169Z,100958.13
2023-03-26T21:04:26.402Z,100959.56
2023-03-26T21:06:57.550Z,100968.47
2023-03-26T21:09:35.462Z,100964.09
2023-03-26T21:12:08.682Z,100969.63
2023-03-26T21:14:44.439Z,100969.50
2023-03-26T21:17:22.683Z,100978.66
2023-03-26T21:19:50.354Z,100982.94
2023-03-26T21:22:36.791Z,100989.31
2023-03-26T21:25:22.993Z,100989.84
2023-03-26T21:28:08.501Z,100990.44
2023-03-26T21:30:36.034Z,100993.38
2023-03-26T21:33:05.644Z,100998.91
2023-03-26T21:35:35.035Z,101006.25
2023-03-26T21:38:04.988Z,101012.06
2023-03-26T21:40:33.536Z,101005.97
2023-03-26T21:43:00.802Z,101011.59
2023-03-26T21:45:28.418Z,101010.47
2023-03-26T21:47:56.085Z,101009.75
2023-03-26T21:50:24.498Z,101017.97
2023-03-26T21:52:52.601Z,101019.09
2023-03-26T21:55:26.171Z,101017.63
2023-03-26T21:58:13.425Z,101023.00
2023-03-26T22:01:10.086Z,101026.25
2023-03-26T22:04:02.162Z,101035.03
2023-03-26T22:06:56.166Z,101040.66
2023-03-26T22:09:33.873Z,101045.06
2023-03-26T22:12:03.691Z,101049.75
2023-03-26T22:14:30.639Z,101047.75
2023-03-26T22:16:57.546Z,101056.81
2023-03-26T22:19:24.639Z,101055.97
2023-03-26T22:21:51.535Z,101063.03
2023-03-26T22:24:18.431Z,101071.38
2023-03-26T22:26:45.414Z,101071.97
2023-03-26T22:29:12.356Z,101076.34
2023-03-26T22:31:39.966Z,101075.63
2023-03-26T22:34:07.901Z,101079.34
2023-03-26T22:36:36.040Z,101088.63
2023-03-26T22:39:04.782Z,101082.28
2023-03-26T22:41:32.130Z,101084.25
2023-03-26T22:44:09.259Z,101083.53
2023-03-26T22:46:47.609Z,101095.38
2023-03-26T22:49:14.564Z,101101.34
2023-03-26T22:51:41.647Z,101111.16
2023-03-26T22:54:08.961Z,101112.53
2023-03-26T22:56:36.634Z,101109.94
2023-03-26T22:59:04.034Z,101116.47
2023-03-26T23:01:31.112Z,101121.31
2023-03-26T23:03:58.369Z,101117.06
2023-03-26T23:06:25.623Z,101123.53
2023-03-26T23:08:52.757Z,101118.28
2023-03-26T23:11:22.368Z,101115.34
2023-03-26T23:13:49.892Z,101123.66
2023-03-26T23:16:18.236Z,101138.69
2023-03-26T23:18:45.903Z,101136.13
2023-03-26T23:21:19.447Z,101145.03
2023-03-26T23:23:48.942Z,101145.88
2023-03-26T23:26:16.653Z,101151.53
2023-03-26T23:28:43.736Z,101153.41
2023-03-26T23:31:12.953Z,101147.00
2023-03-26T23:33:46.432Z,101154.97
2023-03-26T23:36:19.489Z,101155.81
2023-03-26T23:38:48.811Z,101153.25
2023-03-26T23:41:22.008Z,101158.63
2023-03-26T23:43:55.839Z,101155.81
2023-03-26T23:46:25.919Z,101165.00
2023-03-26T23:48:53.429Z,101169.13
2023-03-26T23:51:22.545Z,101175.75
2023-03-26T23:53:49.999Z,101181.97
2023-03-26T23:56:17.979Z,101194.59
2023-03-26T23:58:45.273Z,101198.13
